Time;durP1;ratioP1;P1;durP2;ratioP2;P2;SDS_P1;SDS_P2;PMS_P1;PMS_P2;Temp;Humidity;BMP_temperature;BMP_pressure;BME280_temperature;BME280_humidity;BME280_pressure;Samples;Min_cycle;Max_cycle;Signal;HPM_P1;HPM_P2
2023/06/18 00:01:11;;;;;;;5.68;4.22;;;23.90;73.70;;;;;;5024575;28;20018;-34
2023/06/18 00:03:36;;;;;;;4.95;4.32;;;23.80;73.70;;;;;;5024005;28;20037;-34
2023/06/18 00:06:02;;;;;;;5.18;4.68;;;23.80;73.70;;;;;;5024563;28;20476;-34
2023/06/18 00:08:27;;;;;;;5.32;4.53;;;23.80;73.70;;;;;;5024496;28;20132;-33
2023/06/18 00:10:53;;;;;;;4.07;3.67;;;23.80;73.70;;;;;;5023715;28;20108;-34
2023/06/18 00:13:19;;;;;;;4.85;4.35;;;23.80;73.70;;;;;;5023088;28;20472;-34
2023/06/18 00:15:48;;;;;;;5.03;4.20;;;23.80;73.70;;;;;;5024720;28;20026;-34
2023/06/18 00:18:13;;;;;;;4.50;4.10;;;23.70;73.60;;;;;;5022744;28;20080;-35
2023/06/18 00:20:42;;;;;;;5.43;4.45;;;23.70;73.60;;;;;;5024145;28;20049;-36
2023/06/18 00:23:07;;;;;;;4.50;3.85;;;23.70;73.70;;;;;;5023454;28;20129;-33
2023/06/18 00:25:33;;;;;;;5.00;3.67;;;23.70;73.60;;;;;;5024222;28;20100;-34
2023/06/18 00:27:58;;;;;;;5.65;4.30;;;23.70;73.60;;;;;;5024329;28;20431;-34
2023/06/18 00:30:26;;;;;;;5.03;4.28;;;23.70;73.60;;;;;;5023346;28;20060;-34
2023/06/18 00:32:52;;;;;;;5.57;4.28;;;23.70;73.60;;;;;;5024599;28;20053;-35
2023/06/18 00:35:17;;;;;;;4.30;3.90;;;23.70;73.50;;;;;;5023705;28;20075;-35
2023/06/18 00:37:47;;;;;;;4.45;4.05;;;23.70;73.50;;;;;;5024241;28;20013;-34
2023/06/18 00:40:14;;;;;;;4.80;4.00;;;23.70;73.40;;;;;;5023812;28;20889;-34
2023/06/18 00:42:41;;;;;;;5.53;4.00;;;23.70;73.30;;;;;;5024132;28;20101;-34
2023/06/18 00:45:12;;;;;;;4.13;3.55;;;23.70;73.30;;;;;;5023806;28;20137;-33
2023/06/18 00:47:41;;;;;;;4.30;3.90;;;23.70;73.20;;;;;;5023344;28;20041;-33
2023/06/18 00:50:08;;;;;;;4.15;3.67;;;23.60;73.10;;;;;;5024280;28;20584;-34
2023/06/18 00:52:36;;;;;;;3.88;3.47;;;23.70;73.10;;;;;;5023565;28;20068;-34
2023/06/18 00:55:03;;;;;;;4.15;3.75;;;23.60;73.00;;;;;;5025199;28;20025;-34
2023/06/18 00:57:31;;;;;;;5.47;3.72;;;23.60;73.00;;;;;;5024272;28;20108;-37
2023/06/18 00:59:56;;;;;;;4.00;3.60;;;23.60;73.00;;;;;;5024092;28;20057;-33
2023/06/18 01:02:25;;;;;;;4.55;3.70;;;23.60;73.00;;;;;;5023558;28;20372;-32
2023/06/18 01:04:53;;;;;;;4.18;3.45;;;23.60;73.00;;;;;;5024631;28;20108;-34
2023/06/18 01:07:22;;;;;;;4.05;3.55;;;23.50;73.00;;;;;;5023033;28;20026;-34
2023/06/18 01:09:53;;;;;;;4.55;3.83;;;23.50;73.00;;;;;;5024430;28;20471;-34
2023/06/18 01:12:20;;;;;;;3.90;3.50;;;23.40;72.90;;;;;;5022547;28;20014;-38
2023/06/18 01:14:50;;;;;;;5.10;3.80;;;23.40;73.00;;;;;;5023627;28;20079;-34
2023/06/18 01:17:20;;;;;;;4.18;3.70;;;23.30;73.00;;;;;;5023802;28;20025;-34
2023/06/18 01:19:56;;;;;;;4.70;3.65;;;23.30;73.00;;;;;;5023010;28;20465;-34
2023/06/18 01:22:38;;;;;;;5.43;3.80;;;23.20;73.00;;;;;;5023053;28;20498;-34
2023/06/18 01:25:08;;;;;;;5.40;3.50;;;23.20;73.00;;;;;;5026635;28;20060;-34
2023/06/18 01:27:40;;;;;;;4.15;3.58;;;23.10;73.00;;;;;;5025977;28;20060;-35
2023/06/18 01:30:13;;;;;;;5.15;3.85;;;23.10;73.10;;;;;;5027026;28;20548;-33
2023/06/18 01:32:38;;;;;;;4.10;3.70;;;23.10;73.20;;;;;;5027119;28;20388;-34
2023/06/18 01:35:06;;;;;;;4.18;3.63;;;23.00;73.20;;;;;;5026148;28;20026;-35
2023/06/18 01:37:53;;;;;;;3.97;3.28;;;23.00;73.30;;;;;;5027792;28;20021;-34
2023/06/18 01:40:46;;;;;;;4.85;3.92;;;23.00;73.30;;;;;;5027208;28;20499;-34
2023/06/18 01:43:17;;;;;;;4.03;3.38;;;22.90;73.40;;;;;;5026621;28;20029;-34
2023/06/18 01:45:50;;;;;;;5.13;3.78;;;22.90;73.50;;;;;;5026886;28;20067;-33
2023/06/18 01:48:20;;;;;;;4.10;3.70;;;22.90;73.50;;;;;;5026158;28;20437;-33
2023/06/18 01:50:49;;;;;;;4.18;3.78;;;22.90;73.50;;;;;;5027569;28;20053;-33
2023/06/18 01:53:16;;;;;;;3.78;3.40;;;22.80;73.50;;;;;;5026402;28;20736;-34
2023/06/18 01:55:44;;;;;;;5.43;3.67;;;22.80;73.70;;;;;;5026452;28;20485;-35
2023/06/18 01:58:13;;;;;;;4.10;3.55;;;22.80;73.80;;;;;;5026497;28;20021;-34
2023/06/18 02:00:42;;;;;;;3.97;3.35;;;22.80;73.90;;;;;;5026375;28;20029;-34
2023/06/18 02:03:08;;;;;;;6.40;4.20;;;22.70;73.90;;;;;;5025854;28;20025;-32
2023/06/18 02:05:34;;;;;;;5.75;3.90;;;22.70;74.00;;;;;;5026971;28;20029;-34
2023/06/18 02:08:00;;;;;;;7.32;4.05;;;22.70;74.10;;;;;;5026448;28;20215;-33
2023/06/18 02:10:25;;;;;;;4.13;3.72;;;22.60;74.10;;;;;;5025073;28;20025;-34
2023/06/18 02:12:53;;;;;;;4.10;3.70;;;22.50;74.20;;;;;;5026884;28;20031;-33
2023/06/18 02:15:19;;;;;;;4.47;4.03;;;22.50;74.30;;;;;;5025711;28;20017;-34
2023/06/18 02:17:45;;;;;;;5.20;4.03;;;22.50;74.60;;;;;;5026154;28;20025;-33
2023/06/18 02:20:11;;;;;;;4.03;3.50;;;22.50;74.70;;;;;;5026189;28;20026;-34
2023/06/18 02:22:40;;;;;;;5.20;4.15;;;22.40;74.80;;;;;;5025761;28;20385;-35
2023/06/18 02:25:09;;;;;;;4.53;4.03;;;22.40;75.00;;;;;;5026466;28;20030;-35
2023/06/18 02:27:34;;;;;;;5.25;3.90;;;22.30;75.00;;;;;;5025776;28;20212;-34
2023/06/18 02:30:04;;;;;;;4.32;3.92;;;22.30;75.20;;;;;;5025182;28;20113;-34
2023/06/18 02:32:31;;;;;;;4.57;3.65;;;22.20;75.30;;;;;;5025830;28;20202;-34
2023/06/18 02:34:57;;;;;;;5.05;4.00;;;22.20;75.40;;;;;;5026251;28;20770;-34
2023/06/18 02:37:22;;;;;;;4.35;3.92;;;22.20;75.50;;;;;;5024445;28;20061;-35
2023/06/18 02:39:48;;;;;;;4.47;4.07;;;22.10;75.60;;;;;;5026657;28;20373;-35
2023/06/18 02:42:14;;;;;;;4.55;4.03;;;22.10;75.70;;;;;;5026937;28;20029;-34
2023/06/18 02:44:42;;;;;;;5.00;4.00;;;22.00;75.80;;;;;;5025847;28;20101;-34
2023/06/18 02:47:08;;;;;;;5.45;4.45;;;22.00;76.00;;;;;;5014918;28;20117;-34
2023/06/18 02:49:34;;;;;;;4.45;3.88;;;22.00;76.10;;;;;;5024285;28;20128;-33
2023/06/18 02:52:00;;;;;;;5.18;4.68;;;21.90;76.20;;;;;;5025830;28;20037;-35
2023/06/18 02:54:25;;;;;;;4.70;4.20;;;21.90;76.30;;;;;;5024791;28;20411;-35
2023/06/18 02:56:54;;;;;;;5.75;4.40;;;21.80;76.50;;;;;;5025958;28;20013;-35
2023/06/18 02:59:40;;;;;;;5.95;4.22;;;21.80;76.70;;;;;;5024309;28;20033;-35
2023/06/18 03:02:06;;;;;;;4.70;4.00;;;21.80;76.90;;;;;;5024381;28;20509;-34
2023/06/18 03:04:32;;;;;;;4.38;3.97;;;21.70;76.80;;;;;;5025703;28;20021;-35
2023/06/18 03:07:01;;;;;;;4.72;4.22;;;21.70;77.00;;;;;;5024063;28;20048;-34
2023/06/18 03:09:27;;;;;;;6.07;4.57;;;21.60;77.20;;;;;;5025241;28;20555;-34
2023/06/18 03:11:53;;;;;;;5.68;5.03;;;21.60;77.30;;;;;;5024922;28;20033;-34
2023/06/18 03:14:21;;;;;;;6.13;4.55;;;21.60;77.50;;;;;;5024819;28;20034;-34
2023/06/18 03:16:48;;;;;;;5.40;4.90;;;21.60;77.60;;;;;;5025625;28;20025;-34
2023/06/18 03:19:16;;;;;;;5.55;4.60;;;21.50;77.80;;;;;;5024222;28;20067;-34
2023/06/18 03:21:42;;;;;;;6.03;4.70;;;21.50;78.00;;;;;;5025373;28;20026;-35
2023/06/18 03:24:08;;;;;;;4.78;4.30;;;21.50;78.20;;;;;;5025068;28;20033;-34
2023/06/18 03:26:36;;;;;;;5.15;4.65;;;21.40;78.20;;;;;;5024199;28;20029;-35
2023/06/18 03:29:05;;;;;;;4.68;4.20;;;21.40;78.30;;;;;;5025091;28;20049;-34
2023/06/18 03:31:32;;;;;;;6.10;4.95;;;21.40;78.50;;;;;;5025324;28;20511;-34
2023/06/18 03:34:01;;;;;;;6.20;5.13;;;21.40;78.60;;;;;;5024793;28;20111;-35
2023/06/18 03:36:39;;;;;;;7.03;5.00;;;21.40;78.80;;;;;;5024604;28;20022;-34
2023/06/18 03:39:05;;;;;;;6.55;4.78;;;21.40;78.90;;;;;;5005680;28;20485;-34
2023/06/18 03:41:30;;;;;;;8.10;5.40;;;21.40;79.00;;;;;;5011097;28;20048;-35
2023/06/18 03:43:56;;;;;;;5.25;4.75;;;21.40;79.10;;;;;;5025367;28;20022;-34
2023/06/18 03:46:21;;;;;;;5.45;4.95;;;21.40;79.20;;;;;;5024735;28;20032;-34
2023/06/18 03:48:47;;;;;;;5.53;4.80;;;21.40;79.30;;;;;;5025313;28;20484;-34
2023/06/18 03:51:12;;;;;;;5.22;4.72;;;21.40;79.30;;;;;;5025161;28;20028;-34
2023/06/18 03:53:38;;;;;;;6.90;4.82;;;21.30;79.40;;;;;;5024496;28;20046;-33
2023/06/18 03:56:08;;;;;;;5.95;5.15;;;21.40;79.50;;;;;;5024413;28;20195;-34
2023/06/18 03:58:34;;;;;;;9.30;5.63;;;21.30;79.50;;;;;;5024715;28;20052;-34
2023/06/18 04:01:01;;;;;;;5.82;5.30;;;21.30;79.70;;;;;;5025299;28;20477;-34
2023/06/18 04:03:27;;;;;;;6.07;5.10;;;21.30;79.80;;;;;;5024001;28;20034;-34
2023/06/18 04:05:52;;;;;;;5.90;5.25;;;21.40;79.90;;;;;;5025332;28;20028;-34
2023/06/18 04:08:19;;;;;;;5.85;5.25;;;21.30;79.90;;;;;;5023369;28;20604;-33
2023/06/18 04:10:45;;;;;;;6.78;5.53;;;21.40;80.00;;;;;;5024953;28;20029;-34
2023/06/18 04:13:18;;;;;;;6.00;5.40;;;21.40;80.00;;;;;;5024396;28;20029;-32
2023/06/18 04:15:44;;;;;;;5.75;5.25;;;21.40;80.20;;;;;;5023946;28;20025;-33
2023/06/18 04:18:10;;;;;;;6.05;5.25;;;21.40;80.20;;;;;;5024233;28;20033;-34
2023/06/18 04:20:35;;;;;;;5.72;5.15;;;21.40;80.20;;;;;;5024756;28;20017;-33
2023/06/18 04:23:01;;;;;;;6.53;5.65;;;21.50;80.40;;;;;;5024580;28;20414;-34
2023/06/18 04:25:26;;;;;;;6.32;5.43;;;21.50;80.40;;;;;;5024079;28;20029;-34
2023/06/18 04:27:52;;;;;;;6.78;5.13;;;21.50;80.40;;;;;;5024410;28;20384;-34
2023/06/18 04:30:18;;;;;;;5.63;5.13;;;21.60;80.40;;;;;;5023578;28;20112;-34
2023/06/18 04:32:47;;;;;;;8.13;5.90;;;21.60;80.40;;;;;;5024018;28;20036;-32
2023/06/18 04:35:13;;;;;;;6.00;5.40;;;21.60;80.50;;;;;;5024241;28;20018;-34
2023/06/18 04:37:38;;;;;;;7.13;5.60;;;21.70;80.40;;;;;;5023581;28;20480;-34
2023/06/18 04:40:05;;;;;;;7.78;5.07;;;21.70;80.40;;;;;;5023994;28;20030;-36
2023/06/18 04:42:31;;;;;;;6.63;5.43;;;21.80;80.50;;;;;;5024512;28;20544;-34
2023/06/18 04:44:57;;;;;;;6.55;5.68;;;21.80;80.40;;;;;;5024129;28;20040;-34
2023/06/18 04:47:23;;;;;;;8.88;5.20;;;21.80;80.40;;;;;;5023443;28;20120;-33
2023/06/18 04:49:51;;;;;;;7.40;5.53;;;21.80;80.30;;;;;;5023850;28;20058;-33
2023/06/18 04:52:16;;;;;;;5.97;5.35;;;21.80;80.50;;;;;;5022845;28;20068;-34
2023/06/18 04:54:45;;;;;;;6.20;5.60;;;21.90;80.60;;;;;;5023965;28;20029;-34
2023/06/18 04:57:13;;;;;;;5.70;5.10;;;21.90;80.60;;;;;;5023481;28;20033;-33
2023/06/18 04:59:41;;;;;;;6.65;5.80;;;21.90;80.60;;;;;;5024909;28;20026;-33
2023/06/18 05:02:09;;;;;;;6.57;5.85;;;22.00;80.70;;;;;;5027531;28;20029;-33
2023/06/18 05:04:35;;;;;;;5.70;5.20;;;22.00;80.60;;;;;;5026900;28;20092;-32
2023/06/18 05:07:00;;;;;;;6.28;5.68;;;22.10;80.50;;;;;;5028125;28;20029;-34
2023/06/18 05:09:28;;;;;;;7.05;5.85;;;22.10;80.50;;;;;;5027405;28;20045;-32
2023/06/18 05:11:53;;;;;;;5.80;5.30;;;22.10;80.60;;;;;;5027550;28;20044;-33
2023/06/18 05:14:19;;;;;;;6.22;5.55;;;22.10;80.60;;;;;;5026755;28;20488;-36
2023/06/18 05:16:45;;;;;;;6.45;5.30;;;22.10;80.60;;;;;;5027979;28;20179;-33
2023/06/18 05:19:10;;;;;;;6.75;5.97;;;22.10;80.60;;;;;;5027398;28;20498;-34
2023/06/18 05:21:36;;;;;;;7.40;6.20;;;22.20;80.70;;;;;;5026616;28;20850;-35
2023/06/18 05:24:01;;;;;;;7.03;5.40;;;22.10;80.60;;;;;;5027487;28;20615;-34
2023/06/18 05:26:27;;;;;;;6.97;5.55;;;22.20;80.70;;;;;;5026561;28;20029;-33
2023/06/18 05:28:52;;;;;;;6.55;5.95;;;22.20;80.70;;;;;;5027807;28;20503;-33
2023/06/18 05:31:18;;;;;;;6.70;5.95;;;22.20;80.60;;;;;;5026771;28;20025;-34
2023/06/18 05:33:44;;;;;;;6.28;5.40;;;22.20;80.60;;;;;;5027189;28;20033;-34
2023/06/18 05:36:10;;;;;;;5.95;5.35;;;22.20;80.60;;;;;;5026904;28;20029;-34
2023/06/18 05:38:35;;;;;;;6.68;5.97;;;22.30;80.70;;;;;;5027392;28;20056;-33
2023/06/18 05:41:01;;;;;;;6.63;5.80;;;22.30;80.70;;;;;;5026831;28;20148;-34
2023/06/18 05:43:26;;;;;;;6.38;5.75;;;22.30;80.70;;;;;;5027540;28;20817;-33
2023/06/18 05:45:52;;;;;;;7.75;5.40;;;22.30;80.70;;;;;;5027821;28;20017;-34
2023/06/18 05:48:17;;;;;;;8.00;5.50;;;22.30;80.70;;;;;;5026420;28;20041;-33
2023/06/18 05:50:43;;;;;;;6.57;5.68;;;22.30;80.70;;;;;;5027285;28;20014;-32
2023/06/18 05:53:08;;;;;;;6.30;5.53;;;22.30;80.70;;;;;;5026758;28;20064;-33
2023/06/18 05:55:34;;;;;;;6.47;5.88;;;22.30;80.80;;;;;;5026277;28;20021;-33
2023/06/18 05:58:00;;;;;;;6.38;5.63;;;22.30;80.80;;;;;;5027454;28;20032;-33
2023/06/18 06:00:26;;;;;;;6.97;6.30;;;22.40;80.80;;;;;;5026964;28;20029;-33
2023/06/18 06:02:52;;;;;;;6.35;5.45;;;22.40;80.70;;;;;;5026652;28;20033;-33
2023/06/18 06:05:18;;;;;;;6.20;5.47;;;22.50;80.80;;;;;;5026441;28;20457;-33
2023/06/18 06:07:44;;;;;;;6.00;5.50;;;22.60;80.70;;;;;;5025997;28;20026;-33
2023/06/18 06:10:18;;;;;;;6.75;6.15;;;22.60;80.60;;;;;;5025813;28;20029;-33
2023/06/18 06:12:44;;;;;;;6.75;5.90;;;22.70;80.70;;;;;;5026191;28;20030;-34
2023/06/18 06:15:10;;;;;;;6.43;5.82;;;22.70;80.60;;;;;;5026259;28;20083;-34
2023/06/18 06:17:36;;;;;;;5.80;5.30;;;22.80;80.70;;;;;;5026272;28;20026;-34
2023/06/18 06:20:03;;;;;;;6.85;6.15;;;22.80;80.70;;;;;;5026157;28;20048;-33
2023/06/18 06:22:28;;;;;;;7.68;5.53;;;22.90;80.90;;;;;;5025013;28;20024;-33
2023/06/18 06:24:54;;;;;;;6.72;5.63;;;22.80;80.80;;;;;;5026545;28;20026;-34
2023/06/18 06:27:20;;;;;;;6.57;5.97;;;22.90;80.80;;;;;;5025898;28;20024;-34
2023/06/18 06:29:45;;;;;;;8.20;5.95;;;23.00;80.90;;;;;;5026031;28;20033;-34
2023/06/18 06:32:11;;;;;;;6.68;5.85;;;23.00;80.90;;;;;;5026845;28;20474;-34
2023/06/18 06:34:37;;;;;;;7.95;6.43;;;23.00;80.80;;;;;;5026374;28;20029;-34
2023/06/18 06:37:03;;;;;;;7.97;6.60;;;23.00;80.70;;;;;;5025427;28;20033;-36
2023/06/18 06:39:29;;;;;;;6.65;6.05;;;23.10;80.70;;;;;;5026213;28;20014;-34
2023/06/18 06:41:55;;;;;;;7.50;6.80;;;23.10;80.50;;;;;;5026268;28;20033;-34
2023/06/18 06:44:20;;;;;;;7.22;6.53;;;23.20;80.30;;;;;;5024333;28;20032;-36
2023/06/18 06:46:46;;;;;;;7.05;6.35;;;23.20;80.20;;;;;;5026593;28;20041;-33
2023/06/18 06:49:11;;;;;;;10.77;7.20;;;23.30;80.10;;;;;;5025853;28;20451;-33
2023/06/18 06:51:38;;;;;;;7.78;6.22;;;23.40;79.70;;;;;;5025392;28;20143;-34
2023/06/18 06:54:05;;;;;;;6.70;6.00;;;23.50;79.60;;;;;;5026493;28;20061;-34
2023/06/18 06:56:31;;;;;;;6.88;6.18;;;23.60;79.30;;;;;;5026196;28;20388;-33
2023/06/18 06:58:57;;;;;;;6.40;5.78;;;23.70;79.10;;;;;;5025793;28;20029;-35
2023/06/18 07:01:25;;;;;;;7.13;6.20;;;23.70;78.80;;;;;;5025881;28;20029;-34
2023/06/18 07:03:51;;;;;;;6.90;5.60;;;23.80;78.60;;;;;;5025954;28;20075;-34
2023/06/18 07:06:17;;;;;;;6.32;5.72;;;23.90;78.30;;;;;;5024877;28;20029;-38
2023/06/18 07:08:42;;;;;;;6.38;5.78;;;24.00;78.00;;;;;;5025989;28;20033;-34
2023/06/18 07:11:08;;;;;;;6.57;5.70;;;24.10;77.70;;;;;;5024579;28;20079;-35
2023/06/18 07:13:34;;;;;;;6.45;5.70;;;24.20;77.50;;;;;;5025320;28;20064;-33
2023/06/18 07:16:03;;;;;;;6.20;5.60;;;24.20;77.80;;;;;;5025612;28;20025;-34
2023/06/18 07:18:28;;;;;;;6.38;5.78;;;24.30;77.00;;;;;;5023365;28;20117;-33
2023/06/18 07:20:54;;;;;;;6.63;5.93;;;24.40;76.80;;;;;;5025255;28;20145;-34
2023/06/18 07:23:19;;;;;;;5.63;5.05;;;24.50;76.70;;;;;;5024345;28;20025;-35
2023/06/18 07:25:45;;;;;;;6.00;5.47;;;24.60;76.40;;;;;;5024574;28;20433;-33
2023/06/18 07:28:11;;;;;;;6.57;5.63;;;24.80;76.20;;;;;;5024900;28;20041;-34
2023/06/18 07:30:36;;;;;;;5.65;5.15;;;24.90;75.80;;;;;;5024679;28;20081;-35
2023/06/18 07:33:02;;;;;;;5.50;5.00;;;25.00;75.50;;;;;;5024843;28;20099;-33
2023/06/18 07:35:27;;;;;;;5.88;5.38;;;25.10;75.30;;;;;;5024296;28;20091;-34
2023/06/18 07:37:53;;;;;;;6.30;5.68;;;25.20;75.00;;;;;;5024918;28;20592;-35
2023/06/18 07:40:18;;;;;;;6.20;5.60;;;25.20;74.60;;;;;;5023551;28;20032;-34
2023/06/18 07:42:44;;;;;;;5.82;5.32;;;25.30;74.70;;;;;;5024697;28;20037;-34
2023/06/18 07:45:10;;;;;;;5.93;5.32;;;25.30;74.60;;;;;;5024682;28;20055;-34
2023/06/18 07:47:35;;;;;;;7.13;5.35;;;25.40;74.40;;;;;;5023314;28;20029;-34
2023/06/18 07:50:02;;;;;;;5.85;5.18;;;25.40;74.30;;;;;;5024500;28;20033;-36
2023/06/18 07:52:28;;;;;;;5.43;4.93;;;25.50;74.30;;;;;;5023096;28;20056;-34
2023/06/18 07:54:53;;;;;;;6.10;5.60;;;25.50;74.10;;;;;;5024416;28;20469;-35
2023/06/18 07:57:22;;;;;;;5.50;5.00;;;25.60;73.80;;;;;;5024656;28;20028;-34
2023/06/18 07:59:47;;;;;;;5.75;5.25;;;25.70;73.70;;;;;;5024871;28;20034;-34
2023/06/18 08:02:13;;;;;;;6.47;4.90;;;25.80;73.30;;;;;;5023852;28;20028;-34
2023/06/18 08:04:39;;;;;;;5.57;5.07;;;25.90;73.10;;;;;;5024842;28;20473;-33
2023/06/18 08:07:05;;;;;;;5.22;4.72;;;25.90;72.70;;;;;;5025513;28;20021;-34
2023/06/18 08:09:31;;;;;;;4.85;4.35;;;25.90;72.60;;;;;;5024397;28;20068;-34
2023/06/18 08:11:56;;;;;;;5.90;5.25;;;25.90;72.50;;;;;;5024950;28;20810;-34
2023/06/18 08:14:22;;;;;;;6.20;5.57;;;25.90;72.50;;;;;;5023097;28;20028;-34
2023/06/18 08:16:48;;;;;;;5.60;5.10;;;25.80;73.10;;;;;;5024492;28;20060;-34
2023/06/18 08:19:14;;;;;;;5.88;5.30;;;25.70;72.60;;;;;;5023846;28;20173;-35
2023/06/18 08:21:39;;;;;;;6.38;4.78;;;25.80;73.00;;;;;;5023059;28;20453;-32
2023/06/18 08:24:05;;;;;;;6.50;5.90;;;25.80;72.90;;;;;;5024163;28;20482;-34
2023/06/18 08:26:31;;;;;;;6.00;5.22;;;25.90;72.70;;;;;;5023600;28;20021;-33
2023/06/18 08:28:56;;;;;;;7.43;5.15;;;25.90;72.80;;;;;;5023623;28;20049;-35
2023/06/18 08:31:22;;;;;;;6.55;5.60;;;26.00;72.80;;;;;;5023427;28;20033;-34
2023/06/18 08:33:49;;;;;;;5.30;4.80;;;26.10;72.50;;;;;;5023690;28;20028;-34
2023/06/18 08:36:15;;;;;;;4.68;4.28;;;26.10;72.10;;;;;;5023647;28;20049;-35
2023/06/18 08:38:40;;;;;;;4.85;4.38;;;26.20;71.80;;;;;;5024035;28;20108;-36
2023/06/18 08:41:07;;;;;;;4.93;4.43;;;26.30;71.60;;;;;;5023838;28;20025;-34
2023/06/18 08:43:35;;;;;;;4.22;3.83;;;26.30;71.00;;;;;;5023320;28;20029;-34
2023/06/18 08:46:21;;;;;;;4.78;4.38;;;26.40;70.90;;;;;;5024003;28;20029;-34
2023/06/18 08:48:52;;;;;;;6.53;5.50;;;26.60;71.30;;;;;;5023473;28;20029;-34
2023/06/18 08:51:21;;;;;;;6.43;4.80;;;26.60;70.40;;;;;;5022841;28;20124;-34
2023/06/18 08:53:55;;;;;;;4.97;4.43;;;26.60;69.90;;;;;;5023728;28;20049;-34
2023/06/18 08:56:23;;;;;;;4.97;4.47;;;26.70;69.70;;;;;;5023930;28;20056;-34
2023/06/18 08:58:55;;;;;;;5.25;4.75;;;26.70;69.60;;;;;;5022990;28;20057;-34
2023/06/18 09:01:21;;;;;;;5.15;4.72;;;26.80;69.20;;;;;;5024271;28;20038;-35
2023/06/18 09:03:48;;;;;;;5.22;4.72;;;26.90;69.10;;;;;;5022880;28;20040;-34
2023/06/18 09:06:14;;;;;;;4.70;4.28;;;26.90;69.00;;;;;;5023577;28;20144;-34
2023/06/18 09:08:40;;;;;;;5.45;4.95;;;27.00;68.70;;;;;;5023410;28;20033;-34
2023/06/18 09:11:06;;;;;;;5.85;4.75;;;27.10;68.10;;;;;;5023028;28;20024;-34
2023/06/18 09:13:32;;;;;;;5.63;5.10;;;27.10;68.00;;;;;;5023778;28;20029;-33
2023/06/18 09:15:59;;;;;;;4.53;4.13;;;27.20;67.60;;;;;;5024080;28;20079;-33
2023/06/18 09:18:25;;;;;;;5.53;5.03;;;27.20;67.40;;;;;;5022953;28;20033;-34
2023/06/18 09:20:54;;;;;;;6.43;5.50;;;27.30;67.00;;;;;;5024576;28;20034;-34
2023/06/18 09:23:20;;;;;;;5.20;4.80;;;27.40;66.30;;;;;;5023720;28;20029;-35
2023/06/18 09:25:52;;;;;;;6.13;5.60;;;27.50;66.10;;;;;;5023298;28;20022;-34
2023/06/18 09:28:19;;;;;;;5.85;5.20;;;27.50;65.80;;;;;;5023099;28;20468;-34
2023/06/18 09:30:53;;;;;;;5.10;4.60;;;27.60;65.90;;;;;;5023769;28;20029;-33
2023/06/18 09:33:37;;;;;;;4.70;4.30;;;27.70;65.60;;;;;;5022455;28;20032;-34
2023/06/18 09:36:07;;;;;;;4.60;4.20;;;27.80;65.60;;;;;;5014930;28;20057;-35
2023/06/18 09:38:35;;;;;;;5.15;4.70;;;27.80;65.20;;;;;;5023656;28;20032;-33
2023/06/18 09:41:01;;;;;;;4.45;4.05;;;27.90;64.90;;;;;;5022859;28;20519;-34
2023/06/18 09:43:35;;;;;;;4.15;3.78;;;27.90;64.50;;;;;;5023552;28;20029;-34
2023/06/18 09:46:04;;;;;;;6.10;4.40;;;28.00;64.70;;;;;;5025244;28;20698;-35
2023/06/18 09:48:30;;;;;;;4.90;4.38;;;28.00;64.70;;;;;;5026229;28;20060;-34
2023/06/18 09:50:56;;;;;;;3.50;3.20;;;28.00;64.70;;;;;;5026897;28;20366;-33
2023/06/18 09:53:22;;;;;;;3.45;3.15;;;28.00;64.50;;;;;;5026435;28;20107;-35
2023/06/18 09:55:48;;;;;;;3.67;3.38;;;28.10;64.70;;;;;;5026934;28;20450;-34
2023/06/18 09:58:15;;;;;;;4.25;3.88;;;28.10;64.70;;;;;;5027586;28;20118;-35
2023/06/18 10:01:01;;;;;;;4.78;4.38;;;28.10;64.20;;;;;;5026126;28;20029;-33
2023/06/18 10:03:26;;;;;;;5.30;4.15;;;28.10;63.80;;;;;;5025571;28;20080;-35
2023/06/18 10:05:52;;;;;;;4.65;3.97;;;28.10;63.50;;;;;;5026286;28;20025;-34
2023/06/18 10:08:18;;;;;;;5.25;4.50;;;28.20;63.50;;;;;;5025554;28;20124;-35
2023/06/18 10:10:43;;;;;;;5.28;4.78;;;28.20;63.50;;;;;;5026649;28;20034;-34
2023/06/18 10:13:11;;;;;;;4.35;3.95;;;28.20;63.20;;;;;;5026945;28;20099;-35
2023/06/18 10:15:39;;;;;;;4.38;3.97;;;28.20;63.20;;;;;;5025714;28;20033;-33
2023/06/18 10:18:08;;;;;;;4.03;3.70;;;28.20;63.60;;;;;;5026310;28;20030;-33
2023/06/18 10:20:34;;;;;;;5.32;3.80;;;28.20;62.80;;;;;;5026156;28;20032;-33
2023/06/18 10:23:03;;;;;;;4.43;4.03;;;28.30;62.60;;;;;;5026268;28;20037;-34
2023/06/18 10:25:30;;;;;;;4.07;3.67;;;28.40;62.50;;;;;;5025774;28;20541;-34
2023/06/18 10:27:57;;;;;;;4.00;3.60;;;28.50;62.70;;;;;;5025705;28;20045;-34
2023/06/18 10:30:23;;;;;;;3.63;3.20;;;28.50;62.60;;;;;;5025645;28;20028;-34
2023/06/18 10:32:50;;;;;;;3.58;3.28;;;28.60;62.60;;;;;;5026980;28;20021;-35
2023/06/18 10:35:17;;;;;;;3.70;3.40;;;28.60;62.50;;;;;;5025691;28;20075;-35
2023/06/18 10:37:44;;;;;;;3.33;2.97;;;28.70;62.50;;;;;;5026424;28;20018;-35
2023/06/18 10:40:11;;;;;;;3.65;3.35;;;28.70;62.40;;;;;;5026424;28;20037;-34
2023/06/18 10:42:37;;;;;;;3.85;3.35;;;28.80;62.50;;;;;;5025053;28;20052;-34
2023/06/18 10:45:11;;;;;;;3.75;2.80;;;28.80;62.10;;;;;;5025400;28;20038;-35
2023/06/18 10:47:40;;;;;;;3.05;2.80;;;28.80;62.20;;;;;;5024711;28;20076;-35
2023/06/18 10:50:06;;;;;;;3.85;3.20;;;28.90;62.30;;;;;;5025518;28;20079;-35
2023/06/18 10:52:52;;;;;;;2.97;2.55;;;28.90;62.20;;;;;;5025265;28;20419;-36
2023/06/18 10:55:20;;;;;;;2.60;2.40;;;28.80;62.20;;;;;;5024623;28;20069;-35
2023/06/18 10:58:03;;;;;;;2.83;2.63;;;28.80;62.40;;;;;;5024885;28;20084;-35
2023/06/18 11:00:36;;;;;;;3.13;2.90;;;28.70;62.30;;;;;;5025686;28;20579;-34
2023/06/18 11:03:25;;;;;;;3.28;2.97;;;28.70;62.30;;;;;;5026028;28;20118;-35
2023/06/18 11:06:01;;;;;;;3.85;3.55;;;28.70;62.20;;;;;;5022281;28;20036;-33
2023/06/18 11:08:32;;;;;;;3.38;3.00;;;28.60;62.10;;;;;;5021978;28;20029;-34
2023/06/18 11:11:06;;;;;;;3.95;3.45;;;28.50;62.20;;;;;;5025995;28;20021;-35
2023/06/18 11:13:53;;;;;;;3.70;3.40;;;28.40;62.30;;;;;;5025066;28;20025;-34
2023/06/18 11:16:19;;;;;;;3.60;3.30;;;28.40;62.70;;;;;;5025558;28;20022;-35
2023/06/18 11:18:45;;;;;;;3.20;2.97;;;28.40;62.80;;;;;;5024761;28;20328;-34
2023/06/18 11:21:19;;;;;;;3.72;3.42;;;28.30;63.70;;;;;;5025041;28;20469;-35
2023/06/18 11:23:46;;;;;;;3.22;3.03;;;28.30;63.30;;;;;;5025248;28;20026;-34
2023/06/18 11:26:16;;;;;;;3.95;3.65;;;28.30;63.60;;;;;;5024673;28;20036;-34
2023/06/18 11:28:42;;;;;;;4.43;3.78;;;28.20;64.00;;;;;;5024883;28;20489;-34
2023/06/18 11:31:11;;;;;;;3.70;3.40;;;28.10;64.40;;;;;;5025154;28;20024;-34
2023/06/18 11:33:36;;;;;;;4.43;4.03;;;28.00;64.80;;;;;;5024844;28;20193;-33
2023/06/18 11:36:12;;;;;;;3.80;3.50;;;28.00;65.10;;;;;;5025109;28;20037;-33
2023/06/18 11:38:39;;;;;;;5.15;3.63;;;27.90;65.40;;;;;;5024059;28;20442;-34
2023/06/18 11:41:05;;;;;;;3.88;3.58;;;27.80;65.60;;;;;;5025222;28;20508;-34
2023/06/18 11:43:45;;;;;;;3.22;2.92;;;27.80;65.80;;;;;;5024592;28;20021;-34
2023/06/18 11:46:25;;;;;;;3.50;3.17;;;27.70;65.90;;;;;;5024090;28;20119;-34
2023/06/18 11:48:52;;;;;;;4.00;3.60;;;27.60;66.00;;;;;;5024861;28;20068;-35
2023/06/18 11:51:18;;;;;;;3.40;3.10;;;27.60;66.00;;;;;;5024594;28;20025;-35
2023/06/18 11:53:44;;;;;;;3.80;3.50;;;27.50;66.20;;;;;;5023603;28;20068;-35
2023/06/18 11:56:10;;;;;;;4.00;3.63;;;27.50;66.40;;;;;;5024394;28;20018;-35
2023/06/18 11:58:36;;;;;;;3.97;3.38;;;27.50;66.40;;;;;;5024702;28;20024;-35
2023/06/18 12:01:02;;;;;;;3.75;3.45;;;27.50;66.60;;;;;;5024078;28;20029;-35
2023/06/18 12:03:36;;;;;;;5.53;3.75;;;27.50;66.80;;;;;;5023757;28;20041;-34
2023/06/18 12:06:11;;;;;;;3.63;3.33;;;27.50;67.00;;;;;;5025402;28;20026;-33
2023/06/18 12:08:43;;;;;;;3.83;3.22;;;27.60;67.10;;;;;;5023663;28;20037;-33
2023/06/18 12:11:30;;;;;;;4.18;3.78;;;27.70;67.10;;;;;;5024105;28;20049;-34
2023/06/18 12:14:05;;;;;;;4.10;3.80;;;27.70;67.20;;;;;;5024206;28;20033;-34
2023/06/18 12:16:32;;;;;;;3.70;3.40;;;27.80;67.10;;;;;;5024271;28;20075;-34
2023/06/18 12:19:03;;;;;;;3.90;3.60;;;27.90;66.90;;;;;;5023864;28;20124;-34
2023/06/18 12:21:30;;;;;;;4.93;3.50;;;27.90;66.60;;;;;;5022840;28;20021;-34
2023/06/18 12:23:58;;;;;;;6.63;3.55;;;28.00;66.70;;;;;;5023731;28;20029;-35
2023/06/18 12:26:24;;;;;;;4.97;4.07;;;28.00;66.70;;;;;;5023295;28;20025;-34
2023/06/18 12:28:50;;;;;;;4.45;4.05;;;28.10;66.70;;;;;;5023306;28;20041;-34
2023/06/18 12:31:15;;;;;;;4.03;3.70;;;28.10;66.40;;;;;;5024458;28;20029;-34
2023/06/18 12:33:42;;;;;;;4.13;3.80;;;28.10;66.50;;;;;;5024015;28;20439;-34
2023/06/18 12:36:08;;;;;;;5.07;4.43;;;28.20;66.70;;;;;;5022885;28;20032;-33
2023/06/18 12:38:41;;;;;;;4.20;3.90;;;28.20;66.70;;;;;;5024145;28;20119;-33
2023/06/18 12:41:06;;;;;;;5.43;3.85;;;28.20;66.60;;;;;;5023372;28;20116;-34
2023/06/18 12:43:41;;;;;;;4.18;3.78;;;28.20;66.70;;;;;;5023055;28;20120;-35
2023/06/18 12:46:07;;;;;;;4.18;3.83;;;28.20;66.60;;;;;;5023495;28;20036;-33
2023/06/18 12:48:38;;;;;;;4.88;4.47;;;28.20;66.60;;;;;;5003930;28;20033;-33
2023/06/18 12:51:03;;;;;;;4.50;4.10;;;28.30;66.50;;;;;;5018719;28;20544;-33